sensor_id;sensor_type;location;lat;lon;timestamp;pressure;altitude;pressure_sealevel;temperature;humidity
76352;BME280;65179;47.786;19.138;2023-03-23T00:01:12;100207.56;;;8.42;67.03
76352;BME280;65179;47.786;19.138;2023-03-23T00:03:39;100208.00;;;8.32;67.33
76352;BME280;65179;47.786;19.138;2023-03-23T00:06:06;100209.22;;;8.23;67.60
76352;BME280;65179;47.786;19.138;2023-03-23T00:08:33;100205.47;;;8.11;67.91
76352;BME280;65179;47.786;19.138;2023-03-23T00:11:04;100210.50;;;8.01;68.21
76352;BME280;65179;47.786;19.138;2023-03-23T00:13:29;100208.81;;;8.00;68.12
76352;BME280;65179;47.786;19.138;2023-03-23T00:15:55;100202.38;;;7.94;68.56
76352;BME280;65179;47.786;19.138;2023-03-23T00:18:23;100206.53;;;7.97;68.46
76352;BME280;65179;47.786;19.138;2023-03-23T00:20:56;100205.09;;;7.94;68.44
76352;BME280;65179;47.786;19.138;2023-03-23T00:23:24;100198.00;;;7.87;68.77
76352;BME280;65179;47.786;19.138;2023-03-23T00:25:54;100198.59;;;7.89;68.70
76352;BME280;65179;47.786;19.138;2023-03-23T00:28:24;100196.75;;;7.96;68.37
76352;BME280;65179;47.786;19.138;2023-03-23T00:30:59;100194.66;;;7.85;68.73
76352;BME280;65179;47.786;19.138;2023-03-23T00:33:27;100196.75;;;7.83;68.30
76352;BME280;65179;47.786;19.138;2023-03-23T00:35:53;100198.41;;;7.84;68.21
76352;BME280;65179;47.786;19.138;2023-03-23T00:38:23;100192.16;;;7.77;68.57
76352;BME280;65179;47.786;19.138;2023-03-23T00:40:49;100197.16;;;7.86;67.93
76352;BME280;65179;47.786;19.138;2023-03-23T00:43:17;100197.59;;;7.83;67.91
76352;BME280;65179;47.786;19.138;2023-03-23T00:45:44;100202.16;;;7.83;67.93
76352;BME280;65179;47.786;19.138;2023-03-23T00:48:14;100189.25;;;7.72;67.84
76352;BME280;65179;47.786;19.138;2023-03-23T00:50:40;100190.28;;;7.64;67.85
76352;BME280;65179;47.786;19.138;2023-03-23T00:53:06;100188.19;;;7.59;67.97
76352;BME280;65179;47.786;19.138;2023-03-23T00:55:32;100189.84;;;7.60;67.90
76352;BME280;65179;47.786;19.138;2023-03-23T00:57:59;100185.69;;;7.58;67.95
76352;BME280;65179;47.786;19.138;2023-03-23T01:00:24;100185.50;;;7.59;67.69
76352;BME280;65179;47.786;19.138;2023-03-23T01:02:49;100186.69;;;7.37;68.29
76352;BME280;65179;47.786;19.138;2023-03-23T01:05:17;100184.62;;;7.39;68.29
76352;BME280;65179;47.786;19.138;2023-03-23T01:07:42;100179.22;;;7.46;68.09
76352;BME280;65179;47.786;19.138;2023-03-23T01:10:10;100180.44;;;7.30;68.35
76352;BME280;65179;47.786;19.138;2023-03-23T01:12:38;100175.50;;;7.40;68.13
76352;BME280;65179;47.786;19.138;2023-03-23T01:15:05;100164.22;;;7.30;68.24
76352;BME280;65179;47.786;19.138;2023-03-23T01:17:31;100170.47;;;7.31;68.37
76352;BME280;65179;47.786;19.138;2023-03-23T01:19:56;100170.03;;;7.21;68.82
76352;BME280;65179;47.786;19.138;2023-03-23T01:22:22;100168.34;;;7.13;69.01
76352;BME280;65179;47.786;19.138;2023-03-23T01:24:47;100171.63;;;7.02;69.29
76352;BME280;65179;47.786;19.138;2023-03-23T01:27:13;100167.09;;;7.09;69.13
76352;BME280;65179;47.786;19.138;2023-03-23T01:29:39;100162.03;;;6.93;69.54
76352;BME280;65179;47.786;19.138;2023-03-23T01:32:05;100171.38;;;6.84;69.85
76352;BME280;65179;47.786;19.138;2023-03-23T01:34:30;100171.78;;;6.87;69.75
76352;BME280;65179;47.786;19.138;2023-03-23T01:36:56;100166.59;;;6.86;69.76
76352;BME280;65179;47.786;19.138;2023-03-23T01:39:22;100169.00;;;6.68;70.17
76352;BME280;65179;47.786;19.138;2023-03-23T01:41:47;100176.75;;;6.84;69.75
76352;BME280;65179;47.786;19.138;2023-03-23T01:46:42;100170.78;;;6.95;68.92
76352;BME280;65179;47.786;19.138;2023-03-23T01:49:11;100166.63;;;6.93;69.29
76352;BME280;65179;47.786;19.138;2023-03-23T01:51:51;100166.44;;;7.01;68.75
76352;BME280;65179;47.786;19.138;2023-03-23T01:54:19;100169.53;;;6.98;68.52
76352;BME280;65179;47.786;19.138;2023-03-23T01:56:57;100170.38;;;6.98;68.42
76352;BME280;65179;47.786;19.138;2023-03-23T01:59:25;100168.47;;;6.85;68.46
76352;BME280;65179;47.786;19.138;2023-03-23T02:01:53;100166.34;;;6.74;68.90
76352;BME280;65179;47.786;19.138;2023-03-23T02:04:19;100160.72;;;6.76;68.74
76352;BME280;65179;47.786;19.138;2023-03-23T02:06:46;100164.69;;;6.80;68.70
76352;BME280;65179;47.786;19.138;2023-03-23T02:09:12;100159.50;;;6.78;68.64
76352;BME280;65179;47.786;19.138;2023-03-23T02:11:45;100151.44;;;6.85;68.43
76352;BME280;65179;47.786;19.138;2023-03-23T02:14:11;100157.81;;;6.71;68.51
76352;BME280;65179;47.786;19.138;2023-03-23T02:16:50;100157.41;;;6.74;68.56
76352;BME280;65179;47.786;19.138;2023-03-23T02:30:14;100173.69;;;6.53;69.28
76352;BME280;65179;47.786;19.138;2023-03-23T02:32:56;100176.16;;;6.48;69.77
76352;BME280;65179;47.786;19.138;2023-03-23T02:35:35;100179.06;;;6.46;70.04
76352;BME280;65179;47.786;19.138;2023-03-23T02:38:16;100179.00;;;6.40;69.94
76352;BME280;65179;47.786;19.138;2023-03-23T02:40:45;100185.03;;;6.42;70.25
76352;BME280;65179;47.786;19.138;2023-03-23T02:43:17;100183.53;;;6.33;71.06
76352;BME280;65179;47.786;19.138;2023-03-23T02:45:46;100188.53;;;6.36;71.24
76352;BME280;65179;47.786;19.138;2023-03-23T02:48:14;100182.50;;;6.34;71.55
76352;BME280;65179;47.786;19.138;2023-03-23T02:50:44;100181.12;;;6.44;71.67
76352;BME280;65179;47.786;19.138;2023-03-23T02:53:13;100180.06;;;6.39;71.71
76352;BME280;65179;47.786;19.138;2023-03-23T02:55:42;100174.16;;;6.29;72.06
76352;BME280;65179;47.786;19.138;2023-03-23T02:58:09;100177.13;;;6.34;71.78
76352;BME280;65179;47.786;19.138;2023-03-23T03:00:35;100181.88;;;6.32;71.54
76352;BME280;65179;47.786;19.138;2023-03-23T03:03:03;100175.44;;;6.33;71.67
76352;BME280;65179;47.786;19.138;2023-03-23T03:09:04;100174.62;;;6.32;71.35
76352;BME280;65179;47.786;19.138;2023-03-23T03:11:18;100182.84;;;6.24;71.52
76352;BME280;65179;47.786;19.138;2023-03-23T03:13:55;100184.06;;;6.22;71.89
76352;BME280;65179;47.786;19.138;2023-03-23T03:16:30;100173.22;;;6.15;72.17
76352;BME280;65179;47.786;19.138;2023-03-23T03:21:47;100172.37;;;6.08;71.74
76352;BME280;65179;47.786;19.138;2023-03-23T03:24:15;100181.84;;;5.97;71.89
76352;BME280;65179;47.786;19.138;2023-03-23T03:26:45;100180.47;;;6.08;71.81
76352;BME280;65179;47.786;19.138;2023-03-23T03:29:14;100184.38;;;6.05;72.26
76352;BME280;65179;47.786;19.138;2023-03-23T03:31:43;100186.69;;;6.08;72.12
76352;BME280;65179;47.786;19.138;2023-03-23T03:34:14;100182.66;;;5.98;72.57
76352;BME280;65179;47.786;19.138;2023-03-23T03:36:46;100189.72;;;5.99;72.57
76352;BME280;65179;47.786;19.138;2023-03-23T03:39:14;100187.13;;;5.84;72.98
76352;BME280;65179;47.786;19.138;2023-03-23T03:41:41;100181.38;;;5.73;72.82
76352;BME280;65179;47.786;19.138;2023-03-23T03:44:07;100193.22;;;5.78;73.05
76352;BME280;65179;47.786;19.138;2023-03-23T03:46:34;100192.50;;;5.84;72.86
76352;BME280;65179;47.786;19.138;2023-03-23T03:49:01;100192.66;;;5.83;73.15
76352;BME280;65179;47.786;19.138;2023-03-23T03:51:28;100199.56;;;5.85;72.86
76352;BME280;65179;47.786;19.138;2023-03-23T03:53:54;100197.59;;;5.79;73.00
76352;BME280;65179;47.786;19.138;2023-03-23T03:56:21;100199.66;;;5.77;73.27
76352;BME280;65179;47.786;19.138;2023-03-23T03:58:47;100200.31;;;5.79;73.07
76352;BME280;65179;47.786;19.138;2023-03-23T04:01:14;100197.53;;;5.73;72.77
76352;BME280;65179;47.786;19.138;2023-03-23T04:03:41;100212.88;;;5.72;72.99
76352;BME280;65179;47.786;19.138;2023-03-23T04:06:07;100205.69;;;5.79;73.23
76352;BME280;65179;47.786;19.138;2023-03-23T04:08:34;100205.78;;;5.86;72.90
76352;BME280;65179;47.786;19.138;2023-03-23T04:11:00;100208.53;;;5.71;73.45
76352;BME280;65179;47.786;19.138;2023-03-23T04:13:26;100206.47;;;5.73;73.53
76352;BME280;65179;47.786;19.138;2023-03-23T04:15:52;100208.47;;;5.65;73.60
76352;BME280;65179;47.786;19.138;2023-03-23T04:18:18;100210.37;;;5.71;73.67
76352;BME280;65179;47.786;19.138;2023-03-23T04:20:46;100211.66;;;5.54;74.20
76352;BME280;65179;47.786;19.138;2023-03-23T04:23:15;100209.91;;;5.46;74.47
76352;BME280;65179;47.786;19.138;2023-03-23T04:25:46;100208.25;;;5.45;74.24
76352;BME280;65179;47.786;19.138;2023-03-23T04:28:12;100214.50;;;5.46;74.36
76352;BME280;65179;47.786;19.138;2023-03-23T04:30:38;100208.34;;;5.52;74.53
76352;BME280;65179;47.786;19.138;2023-03-23T04:33:04;100209.97;;;5.53;74.44
76352;BME280;65179;47.786;19.138;2023-03-23T04:35:29;100216.97;;;5.47;74.42
76352;BME280;65179;47.786;19.138;2023-03-23T04:37:55;100204.16;;;5.49;74.16
76352;BME280;65179;47.786;19.138;2023-03-23T04:40:22;100208.62;;;5.42;74.54
76352;BME280;65179;47.786;19.138;2023-03-23T04:42:48;100198.00;;;5.55;74.21
76352;BME280;65179;47.786;19.138;2023-03-23T04:45:20;100213.53;;;5.53;73.84
76352;BME280;65179;47.786;19.138;2023-03-23T04:47:50;100214.28;;;5.47;73.99
76352;BME280;65179;47.786;19.138;2023-03-23T04:50:26;100207.69;;;5.50;74.52
76352;BME280;65179;47.786;19.138;2023-03-23T04:52:53;100211.97;;;5.44;74.30
76352;BME280;65179;47.786;19.138;2023-03-23T04:55:22;100199.91;;;5.40;74.23
76352;BME280;65179;47.786;19.138;2023-03-23T04:57:47;100211.19;;;5.50;73.92
76352;BME280;65179;47.786;19.138;2023-03-23T05:00:13;100200.34;;;5.44;74.44
76352;BME280;65179;47.786;19.138;2023-03-23T05:02:43;100199.22;;;5.53;74.22
76352;BME280;65179;47.786;19.138;2023-03-23T05:05:14;100199.69;;;5.56;74.11
76352;BME280;65179;47.786;19.138;2023-03-23T05:07:40;100195.88;;;5.51;74.58
76352;BME280;65179;47.786;19.138;2023-03-23T05:10:07;100194.28;;;5.56;74.21
76352;BME280;65179;47.786;19.138;2023-03-23T05:12:34;100205.56;;;5.66;73.78
76352;BME280;65179;47.786;19.138;2023-03-23T05:14:59;100219.47;;;5.49;74.19
76352;BME280;65179;47.786;19.138;2023-03-23T05:17:26;100206.78;;;5.64;73.97
76352;BME280;65179;47.786;19.138;2023-03-23T05:19:52;100198.50;;;5.65;73.90
76352;BME280;65179;47.786;19.138;2023-03-23T05:22:19;100197.22;;;5.61;74.01
76352;BME280;65179;47.786;19.138;2023-03-23T05:24:46;100196.72;;;5.72;73.84
76352;BME280;65179;47.786;19.138;2023-03-23T05:27:12;100194.59;;;5.68;74.13
76352;BME280;65179;47.786;19.138;2023-03-23T05:29:40;100198.69;;;5.64;74.07
76352;BME280;65179;47.786;19.138;2023-03-23T05:32:07;100196.72;;;5.72;74.00
76352;BME280;65179;47.786;19.138;2023-03-23T05:34:36;100198.03;;;5.83;73.88
76352;BME280;65179;47.786;19.138;2023-03-23T05:37:02;100196.47;;;5.88;73.82
76352;BME280;65179;47.786;19.138;2023-03-23T05:39:29;100207.13;;;5.96;73.97
76352;BME280;65179;47.786;19.138;2023-03-23T05:41:55;100201.19;;;6.07;74.42
76352;BME280;65179;47.786;19.138;2023-03-23T05:44:21;100207.47;;;6.15;74.26
76352;BME280;65179;47.786;19.138;2023-03-23T05:46:47;100206.09;;;6.25;73.87
76352;BME280;65179;47.786;19.138;2023-03-23T05:49:13;100209.53;;;6.40;74.41
76352;BME280;65179;47.786;19.138;2023-03-23T05:51:44;100214.13;;;6.46;74.11
76352;BME280;65179;47.786;19.138;2023-03-23T05:54:15;100214.63;;;6.63;73.87
76352;BME280;65179;47.786;19.138;2023-03-23T05:56:42;100223.00;;;6.74;73.64
76352;BME280;65179;47.786;19.138;2023-03-23T05:59:08;100224.53;;;6.90;73.51
76352;BME280;65179;47.786;19.138;2023-03-23T06:01:33;100225.25;;;7.12;73.82
76352;BME280;65179;47.786;19.138;2023-03-23T06:03:59;100215.41;;;7.38;73.26
76352;BME280;65179;47.786;19.138;2023-03-23T06:06:26;100218.12;;;7.64;72.43
76352;BME280;65179;47.786;19.138;2023-03-23T06:08:51;100211.31;;;7.82;71.68
76352;BME280;65179;47.786;19.138;2023-03-23T06:11:17;100216.09;;;8.06;70.75
76352;BME280;65179;47.786;19.138;2023-03-23T06:13:44;100212.97;;;8.22;70.29
76352;BME280;65179;47.786;19.138;2023-03-23T06:16:09;100220.50;;;8.33;70.32
76352;BME280;65179;47.786;19.138;2023-03-23T06:18:37;100218.62;;;8.40;70.05
76352;BME280;65179;47.786;19.138;2023-03-23T06:21:09;100215.91;;;8.53;69.08
76352;BME280;65179;47.786;19.138;2023-03-23T06:23:35;100210.25;;;8.61;68.68
76352;BME280;65179;47.786;19.138;2023-03-23T06:26:03;100208.38;;;8.68;68.56
76352;BME280;65179;47.786;19.138;2023-03-23T06:28:30;100206.44;;;8.75;68.55
76352;BME280;65179;47.786;19.138;2023-03-23T06:31:02;100215.41;;;8.82;68.01
76352;BME280;65179;47.786;19.138;2023-03-23T06:33:30;100217.47;;;8.80;68.30
76352;BME280;65179;47.786;19.138;2023-03-23T06:35:56;100215.78;;;8.86;67.47
76352;BME280;65179;47.786;19.138;2023-03-23T06:38:22;100222.47;;;8.90;67.37
76352;BME280;65179;47.786;19.138;2023-03-23T06:40:54;100224.09;;;8.97;67.52
76352;BME280;65179;47.786;19.138;2023-03-23T06:43:19;100233.66;;;9.06;67.35
76352;BME280;65179;47.786;19.138;2023-03-23T06:45:45;100224.44;;;9.14;67.21
76352;BME280;65179;47.786;19.138;2023-03-23T06:48:10;100224.84;;;9.18;66.84
76352;BME280;65179;47.786;19.138;2023-03-23T06:50:36;100231.31;;;9.16;66.86
76352;BME280;65179;47.786;19.138;2023-03-23T06:53:01;100228.78;;;9.22;66.62
76352;BME280;65179;47.786;19.138;2023-03-23T06:55:27;100227.31;;;9.26;66.44
76352;BME280;65179;47.786;19.138;2023-03-23T06:57:52;100228.97;;;9.33;67.07
76352;BME280;65179;47.786;19.138;2023-03-23T07:00:18;100228.47;;;9.43;66.43
76352;BME280;65179;47.786;19.138;2023-03-23T07:02:49;100229.09;;;9.45;66.04
76352;BME280;65179;47.786;19.138;2023-03-23T07:05:14;100222.19;;;9.49;65.81
76352;BME280;65179;47.786;19.138;2023-03-23T07:07:41;100231.94;;;9.56;65.61
76352;BME280;65179;47.786;19.138;2023-03-23T07:10:08;100231.91;;;9.63;65.72
76352;BME280;65179;47.786;19.138;2023-03-23T07:12:35;100238.56;;;9.67;64.34
76352;BME280;65179;47.786;19.138;2023-03-23T07:15:02;100238.47;;;9.80;63.16
76352;BME280;65179;47.786;19.138;2023-03-23T07:17:28;100246.53;;;9.93;62.71
76352;BME280;65179;47.786;19.138;2023-03-23T07:19:58;100240.69;;;9.96;62.53
76352;BME280;65179;47.786;19.138;2023-03-23T07:22:24;100242.22;;;10.10;62.40
76352;BME280;65179;47.786;19.138;2023-03-23T07:24:49;100237.56;;;10.24;60.97
76352;BME280;65179;47.786;19.138;2023-03-23T07:27:15;100242.72;;;10.32;62.23
76352;BME280;65179;47.786;19.138;2023-03-23T07:29:41;100240.91;;;10.44;61.62
76352;BME280;65179;47.786;19.138;2023-03-23T07:32:08;100238.78;;;10.71;60.19
76352;BME280;65179;47.786;19.138;2023-03-23T07:34:36;100247.53;;;10.73;59.45
76352;BME280;65179;47.786;19.138;2023-03-23T07:37:02;100250.84;;;10.75;60.03
76352;BME280;65179;47.786;19.138;2023-03-23T07:39:28;100248.78;;;10.95;59.21
76352;BME280;65179;47.786;19.138;2023-03-23T07:41:54;100243.50;;;11.00;59.58
76352;BME280;65179;47.786;19.138;2023-03-23T07:44:19;100249.53;;;11.02;58.52
76352;BME280;65179;47.786;19.138;2023-03-23T07:46:45;100250.91;;;11.11;58.99
76352;BME280;65179;47.786;19.138;2023-03-23T07:49:11;100247.19;;;11.23;59.16
76352;BME280;65179;47.786;19.138;2023-03-23T07:51:37;100249.75;;;11.36;58.67
76352;BME280;65179;47.786;19.138;2023-03-23T07:54:04;100246.38;;;11.53;58.83
76352;BME280;65179;47.786;19.138;2023-03-23T07:56:30;100244.13;;;11.68;58.05
76352;BME280;65179;47.786;19.138;2023-03-23T07:58:56;100249.16;;;11.82;57.97
76352;BME280;65179;47.786;19.138;2023-03-23T08:01:22;100253.91;;;11.98;57.39
76352;BME280;65179;47.786;19.138;2023-03-23T08:03:49;100249.94;;;12.12;57.41
76352;BME280;65179;47.786;19.138;2023-03-23T08:06:15;100256.25;;;12.25;57.52
76352;BME280;65179;47.786;19.138;2023-03-23T08:08:41;100255.19;;;12.37;56.94
76352;BME280;65179;47.786;19.138;2023-03-23T08:11:06;100247.63;;;12.51;56.27
76352;BME280;65179;47.786;19.138;2023-03-23T08:13:32;100253.78;;;12.46;56.15
76352;BME280;65179;47.786;19.138;2023-03-23T08:16:01;100250.59;;;12.61;56.10
76352;BME280;65179;47.786;19.138;2023-03-23T08:18:29;100256.25;;;12.82;56.22
76352;BME280;65179;47.786;19.138;2023-03-23T08:20:55;100259.22;;;13.04;55.80
76352;BME280;65179;47.786;19.138;2023-03-23T08:23:21;100256.84;;;13.19;55.05
76352;BME280;65179;47.786;19.138;2023-03-23T08:25:47;100254.69;;;13.33;54.64
76352;BME280;65179;47.786;19.138;2023-03-23T08:28:13;100252.84;;;13.50;54.83
76352;BME280;65179;47.786;19.138;2023-03-23T08:30:40;100255.62;;;13.66;53.76
76352;BME280;65179;47.786;19.138;2023-03-23T08:33:06;100246.84;;;13.93;53.65
76352;BME280;65179;47.786;19.138;2023-03-23T08:35:33;100252.22;;;14.16;53.62
76352;BME280;65179;47.786;19.138;2023-03-23T08:37:58;100248.09;;;14.30;52.67
76352;BME280;65179;47.786;19.138;2023-03-23T08:40:24;100253.16;;;14.55;53.17
76352;BME280;65179;47.786;19.138;2023-03-23T08:42:51;100245.94;;;14.65;52.02
76352;BME280;65179;47.786;19.138;2023-03-23T08:45:19;100244.75;;;14.78;50.38
76352;BME280;65179;47.786;19.138;2023-03-23T08:47:45;100250.84;;;15.01;49.74
76352;BME280;65179;47.786;19.138;2023-03-23T08:50:16;100243.69;;;15.17;49.49
76352;BME280;65179;47.786;19.138;2023-03-23T08:52:42;100243.38;;;15.35;48.20
76352;BME280;65179;47.786;19.138;2023-03-23T08:55:09;100241.34;;;15.69;48.31
76352;BME280;65179;47.786;19.138;2023-03-23T08:57:35;100236.09;;;15.89;47.24
76352;BME280;65179;47.786;19.138;2023-03-23T09:00:10;100236.59;;;15.86;46.59
76352;BME280;65179;47.786;19.138;2023-03-23T09:02:41;100233.91;;;15.91;46.89
76352;BME280;65179;47.786;19.138;2023-03-23T09:05:09;100225.16;;;15.94;46.36
76352;BME280;65179;47.786;19.138;2023-03-23T09:07:37;100231.25;;;16.01;46.08
76352;BME280;65179;47.786;19.138;2023-03-23T09:10:03;100220.56;;;16.26;46.77
76352;BME280;65179;47.786;19.138;2023-03-23T09:12:29;100220.84;;;16.30;46.27
76352;BME280;65179;47.786;19.138;2023-03-23T09:14:55;100220.69;;;16.46;45.94
76352;BME280;65179;47.786;19.138;2023-03-23T09:17:20;100218.03;;;16.51;45.34
76352;BME280;65179;47.786;19.138;2023-03-23T09:19:46;100221.16;;;16.65;43.64
76352;BME280;65179;47.786;19.138;2023-03-23T09:22:11;100222.69;;;16.93;42.49
76352;BME280;65179;47.786;19.138;2023-03-23T09:24:37;100220.31;;;17.11;42.84
76352;BME280;65179;47.786;19.138;2023-03-23T09:27:02;100220.72;;;17.40;42.29
76352;BME280;65179;47.786;19.138;2023-03-23T09:29:28;100223.87;;;17.69;41.52
76352;BME280;65179;47.786;19.138;2023-03-23T09:31:54;100210.37;;;17.57;39.53
76352;BME280;65179;47.786;19.138;2023-03-23T09:34:21;100211.84;;;18.00;39.66
76352;BME280;65179;47.786;19.138;2023-03-23T09:36:47;100222.31;;;18.23;38.79
76352;BME280;65179;47.786;19.138;2023-03-23T09:39:13;100222.03;;;18.19;38.52
76352;BME280;65179;47.786;19.138;2023-03-23T09:49:41;100211.59;;;18.22;38.52
76352;BME280;65179;47.786;19.138;2023-03-23T09:52:18;100205.00;;;18.12;38.62
76352;BME280;65179;47.786;19.138;2023-03-23T09:54:49;100194.84;;;18.23;38.85
76352;BME280;65179;47.786;19.138;2023-03-23T09:57:32;100189.03;;;18.35;38.10
76352;BME280;65179;47.786;19.138;2023-03-23T10:05:40;100202.28;;;18.53;38.09
76352;BME280;65179;47.786;19.138;2023-03-23T10:08:17;100190.13;;;18.39;37.85
76352;BME280;65179;47.786;19.138;2023-03-23T10:16:44;100181.09;;;18.33;37.25
76352;BME280;65179;47.786;19.138;2023-03-23T10:19:30;100181.34;;;18.37;37.79
76352;BME280;65179;47.786;19.138;2023-03-23T10:22:12;100180.53;;;18.06;37.43
76352;BME280;65179;47.786;19.138;2023-03-23T10:25:01;100178.34;;;18.03;38.22
76352;BME280;65179;47.786;19.138;2023-03-23T10:30:13;100181.59;;;17.85;37.74
76352;BME280;65179;47.786;19.138;2023-03-23T10:32:48;100172.28;;;17.91;37.84
76352;BME280;65179;47.786;19.138;2023-03-23T10:35:28;100176.37;;;17.93;37.82
76352;BME280;65179;47.786;19.138;2023-03-23T10:38:02;100181.91;;;18.03;37.62
76352;BME280;65179;47.786;19.138;2023-03-23T10:40:30;100179.69;;;17.95;37.38
76352;BME280;65179;47.786;19.138;2023-03-23T10:42:58;100181.88;;;17.93;37.22
76352;BME280;65179;47.786;19.138;2023-03-23T10:45:27;100182.44;;;18.10;37.32
76352;BME280;65179;47.786;19.138;2023-03-23T10:48:12;100183.28;;;18.16;36.98
76352;BME280;65179;47.786;19.138;2023-03-23T10:50:41;100182.44;;;18.00;36.76
76352;BME280;65179;47.786;19.138;2023-03-23T10:53:33;100180.28;;;18.12;36.80
76352;BME280;65179;47.786;19.138;2023-03-23T10:56:00;100186.28;;;18.19;36.95
76352;BME280;65179;47.786;19.138;2023-03-23T10:58:31;100178.88;;;18.10;36.97
76352;BME280;65179;47.786;19.138;2023-03-23T11:00:59;100170.91;;;18.13;37.17
76352;BME280;65179;47.786;19.138;2023-03-23T11:06:03;100164.03;;;18.11;37.59
76352;BME280;65179;47.786;19.138;2023-03-23T11:11:25;100158.53;;;18.26;37.74
76352;BME280;65179;47.786;19.138;2023-03-23T11:14:01;100159.34;;;18.22;37.66
76352;BME280;65179;47.786;19.138;2023-03-23T11:16:32;100151.09;;;18.42;37.33
76352;BME280;65179;47.786;19.138;2023-03-23T11:19:00;100157.97;;;18.59;36.74
76352;BME280;65179;47.786;19.138;2023-03-23T11:21:27;100153.00;;;18.76;36.93
76352;BME280;65179;47.786;19.138;2023-03-23T11:23:55;100146.91;;;18.89;36.89
76352;BME280;65179;47.786;19.138;2023-03-23T11:26:29;100151.03;;;18.92;36.88
76352;BME280;65179;47.786;19.138;2023-03-23T11:31:33;100150.16;;;19.60;35.18
76352;BME280;65179;47.786;19.138;2023-03-23T11:34:02;100141.34;;;19.63;35.17
76352;BME280;65179;47.786;19.138;2023-03-23T11:36:40;100136.47;;;19.50;35.31
76352;BME280;65179;47.786;19.138;2023-03-23T11:39:33;100144.75;;;19.45;35.24
76352;BME280;65179;47.786;19.138;2023-03-23T11:42:11;100137.84;;;19.48;35.52
76352;BME280;65179;47.786;19.138;2023-03-23T11:44:42;100134.44;;;20.00;34.89
76352;BME280;65179;47.786;19.138;2023-03-23T11:49:57;100130.25;;;20.41;34.61
76352;BME280;65179;47.786;19.138;2023-03-23T11:53:00;100124.84;;;20.83;33.42
76352;BME280;65179;47.786;19.138;2023-03-23T11:55:36;100124.50;;;21.13;33.59
76352;BME280;65179;47.786;19.138;2023-03-23T11:58:10;100110.44;;;20.86;33.46
76352;BME280;65179;47.786;19.138;2023-03-23T12:00:45;100113.59;;;21.22;33.40
76352;BME280;65179;47.786;19.138;2023-03-23T12:06:08;100097.13;;;21.54;32.82
76352;BME280;65179;47.786;19.138;2023-03-23T12:21:57;100079.69;;;21.17;33.08
76352;BME280;65179;47.786;19.138;2023-03-23T12:24:46;100086.25;;;21.95;32.66
76352;BME280;65179;47.786;19.138;2023-03-23T12:35:53;100068.03;;;22.40;31.35
76352;BME280;65179;47.786;19.138;2023-03-23T12:41:20;100059.31;;;22.46;31.51
76352;BME280;65179;47.786;19.138;2023-03-23T12:49:05;100051.34;;;21.99;31.73
76352;BME280;65179;47.786;19.138;2023-03-23T12:51:33;100051.34;;;21.99;30.88
76352;BME280;65179;47.786;19.138;2023-03-23T12:54:19;100055.03;;;21.95;31.54
76352;BME280;65179;47.786;19.138;2023-03-23T12:56:57;100043.19;;;21.57;32.06
76352;BME280;65179;47.786;19.138;2023-03-23T12:59:56;100054.47;;;21.60;31.84
76352;BME280;65179;47.786;19.138;2023-03-23T13:02:42;100052.16;;;21.81;31.48
76352;BME280;65179;47.786;19.138;2023-03-23T13:05:27;100043.75;;;21.91;31.25
76352;BME280;65179;47.786;19.138;2023-03-23T13:36:45;100001.09;;;21.78;31.03
76352;BME280;65179;47.786;19.138;2023-03-23T13:39:56;100003.56;;;21.61;31.54
76352;BME280;65179;47.786;19.138;2023-03-23T13:42:28;99998.22;;;21.70;31.15
76352;BME280;65179;47.786;19.138;2023-03-23T13:45:17;99992.25;;;21.63;31.29
76352;BME280;65179;47.786;19.138;2023-03-23T13:47:43;99992.06;;;21.73;31.76
76352;BME280;65179;47.786;19.138;2023-03-23T13:50:26;99988.97;;;21.61;31.52
76352;BME280;65179;47.786;19.138;2023-03-23T13:52:54;99984.03;;;21.58;31.33
76352;BME280;65179;47.786;19.138;2023-03-23T14:00:35;99981.78;;;21.60;31.55
76352;BME280;65179;47.786;19.138;2023-03-23T14:03:47;99970.37;;;21.48;31.26
76352;BME280;65179;47.786;19.138;2023-03-23T14:08:36;99976.16;;;21.33;31.93
76352;BME280;65179;47.786;19.138;2023-03-23T14:11:23;99976.31;;;21.41;31.86
76352;BME280;65179;47.786;19.138;2023-03-23T14:14:06;99968.84;;;21.42;31.83
76352;BME280;65179;47.786;19.138;2023-03-23T14:16:41;99969.00;;;21.32;32.15
76352;BME280;65179;47.786;19.138;2023-03-23T14:21:59;99971.31;;;21.25;32.26
76352;BME280;65179;47.786;19.138;2023-03-23T14:24:38;99968.28;;;21.40;32.08
76352;BME280;65179;47.786;19.138;2023-03-23T14:27:12;99963.91;;;21.39;32.48
76352;BME280;65179;47.786;19.138;2023-03-23T14:29:38;99963.69;;;21.35;32.20
76352;BME280;65179;47.786;19.138;2023-03-23T14:32:07;99964.22;;;21.19;32.35
76352;BME280;65179;47.786;19.138;2023-03-23T14:34:36;99968.13;;;21.18;32.05
76352;BME280;65179;47.786;19.138;2023-03-23T14:37:02;99955.13;;;21.18;32.45
76352;BME280;65179;47.786;19.138;2023-03-23T14:39:29;99963.41;;;21.18;32.35
76352;BME280;65179;47.786;19.138;2023-03-23T14:42:34;99963.94;;;21.20;32.35
76352;BME280;65179;47.786;19.138;2023-03-23T14:44:55;99960.34;;;21.20;32.24
76352;BME280;65179;47.786;19.138;2023-03-23T14:47:27;99960.94;;;21.17;32.53
76352;BME280;65179;47.786;19.138;2023-03-23T14:49:57;99964.84;;;21.16;32.54
76352;BME280;65179;47.786;19.138;2023-03-23T14:52:29;99954.75;;;21.06;32.75
76352;BME280;65179;47.786;19.138;2023-03-23T14:55:12;99960.88;;;21.03;32.82
76352;BME280;65179;47.786;19.138;2023-03-23T14:57:40;99952.88;;;21.01;32.88
76352;BME280;65179;47.786;19.138;2023-03-23T15:00:15;99960.09;;;20.97;32.65
76352;BME280;65179;47.786;19.138;2023-03-23T15:02:44;99957.28;;;21.02;32.71